»·PEaware :: N214EL KSNA-KOXR

N214EL :: KSNA-KOXR

FLIGHT INFORMATION

Flight Status: Arrived
Operator: Privately registered:
United States
More flights under this callsign
Pilot: Mark S. (16827)
Aircraft: CESSNA T210 TURBO CENTURION
(T210)
More flights by this aircraft type
Origin: KSNA John Wayne-Orange Co
United States
Destination: KOXR Oxnard
United States
More flights between these airports :: More routes between these airports
Route: SLI V23 POPPR SMO125 SMO VNY
File this flight plan on PilotEdge
Remarks:
Altitude:
(Current/Filed)
4,000ft
Speed:
(Current/Filed)
165kts
Departed: 06-Feb-21 08:37 AM
Arrived: 06-Feb-21 09:13 AM
Distance/Time
Traveled:
74nm/0:36
Distance/Time
To Go:
Arrived

Flight Plot

Page will automatically refresh every two minutes.


Map Options




Map Legend


Flown Route
Filed Route
Departure Airport
Arrival Airport
Navaid (VOR, NDB)
Fix

Horizontal Profiles

Position Reports

Time Latitude Longitude Heading Altitude Ground
Speed
06-Feb-21 08:12 33.674858 -117.871632 37 60ft 0kts
06-Feb-21 08:13 33.674858 -117.871632 37 60ft 0kts
06-Feb-21 08:14 33.674858 -117.871632 37 60ft 0kts
06-Feb-21 08:15 33.674858 -117.871632 37 60ft 0kts
06-Feb-21 08:16 33.674858 -117.871632 37 60ft 0kts
06-Feb-21 08:17 33.674858 -117.871632 37 60ft 0kts
06-Feb-21 08:18 33.674858 -117.871632 37 60ft 0kts
06-Feb-21 08:18 33.674858 -117.871632 37 60ft 0kts
06-Feb-21 08:20 33.674858 -117.871632 37 60ft 0kts
06-Feb-21 08:21 33.674858 -117.871632 37 60ft 0kts
06-Feb-21 08:21 33.674858 -117.871632 37 60ft 0kts
06-Feb-21 08:22 33.674858 -117.871632 37 60ft 0kts
06-Feb-21 08:23 33.674858 -117.871632 37 60ft 0kts
06-Feb-21 08:24 33.675217 -117.871091 33 60ft 7kts
06-Feb-21 08:25 33.677894 -117.869327 27 60ft 13kts
06-Feb-21 08:26 33.680825 -117.867268 27 60ft 15kts
06-Feb-21 08:27 33.681287 -117.866615 104 60ft 0kts
06-Feb-21 08:28 33.681287 -117.866615 104 60ft 0kts
06-Feb-21 08:29 33.681287 -117.866615 104 60ft 0kts
06-Feb-21 08:30 33.681287 -117.866615 104 60ft 0kts
06-Feb-21 08:31 33.681287 -117.866615 104 60ft 0kts
06-Feb-21 08:32 33.681287 -117.866615 104 60ft 0kts
06-Feb-21 08:33 33.681287 -117.866615 104 60ft 0kts
06-Feb-21 08:34 33.681287 -117.866615 104 60ft 0kts
06-Feb-21 08:35 33.681025 -117.865828 112 60ft 14kts
06-Feb-21 08:36 33.672721 -117.870573 207 192ft 92kts
06-Feb-21 08:37 33.652780 -117.890429 230 1354ft 97kts
06-Feb-21 08:38 33.634686 -117.915955 230 2221ft 105kts
06-Feb-21 08:39 33.615934 -117.943557 230 3099ft 111kts
06-Feb-21 08:40 33.594225 -117.976534 230 3792ft 131kts
06-Feb-21 08:41 33.569248 -118.015691 231 4015ft 166kts
06-Feb-21 08:42 33.551443 -118.068127 293 4010ft 167kts
06-Feb-21 08:43 33.588442 -118.103304 331 4009ft 163kts
06-Feb-21 08:44 33.629123 -118.132873 331 4009ft 163kts
06-Feb-21 08:45 33.668411 -118.161449 331 4009ft 163kts
06-Feb-21 08:46 33.708366 -118.190499 331 4009ft 162kts
06-Feb-21 08:47 33.744169 -118.216549 331 4009ft 162kts
06-Feb-21 08:48 33.773832 -118.238151 331 4009ft 162kts
06-Feb-21 08:49 33.821300 -118.272757 331 4009ft 162kts
06-Feb-21 08:50 33.854865 -118.301069 323 4009ft 163kts
06-Feb-21 08:51 33.883244 -118.329131 323 4009ft 163kts
06-Feb-21 08:52 33.915290 -118.361239 322 4009ft 163kts
06-Feb-21 08:53 33.943198 -118.389277 322 4009ft 163kts
06-Feb-21 08:54 33.971269 -118.417515 322 4009ft 163kts
06-Feb-21 08:55 34.017796 -118.464247 321 4010ft 163kts
06-Feb-21 08:56 34.052813 -118.500677 321 4000ft 162kts
06-Feb-21 08:57 34.086954 -118.536186 321 4000ft 162kts
06-Feb-21 08:58 34.110080 -118.581798 282 4001ft 165kts
06-Feb-21 08:59 34.118462 -118.636595 281 4000ft 165kts
06-Feb-21 09:00 34.127003 -118.692034 281 3999ft 164kts
06-Feb-21 09:01 34.132409 -118.726871 281 3972ft 165kts
06-Feb-21 09:02 34.140760 -118.781384 281 3981ft 164kts
06-Feb-21 09:03 34.149055 -118.835694 281 3982ft 164kts
06-Feb-21 09:04 34.157349 -118.890113 281 3983ft 164kts
06-Feb-21 09:05 34.165695 -118.944186 281 3984ft 163kts
06-Feb-21 09:06 34.175132 -118.993614 292 3736ft 152kts
06-Feb-21 09:07 34.190874 -119.041779 292 2885ft 139kts
06-Feb-21 09:08 34.199887 -119.084154 272 1978ft 125kts
06-Feb-21 09:09 34.200152 -119.124171 271 1296ft 115kts
06-Feb-21 09:10 34.200411 -119.157810 270 740ft 89kts
06-Feb-21 09:11 34.200661 -119.185531 270 340ft 79kts
06-Feb-21 09:12 34.200529 -119.203139 198 40ft 4kts

Navigation Log

Ident Type
Flight plan parsing failed, navigation log unavailable